createdAt,value
2022-07-25T00:00:57.945Z,998.85
2022-07-25T00:01:55.211Z,998.86
2022-07-25T00:02:55.168Z,998.86
2022-07-25T00:03:54.918Z,998.84
2022-07-25T00:04:54.942Z,998.84
2022-07-25T00:05:55.083Z,998.87
2022-07-25T00:06:56.098Z,998.86
2022-07-25T00:07:54.864Z,998.83
2022-07-25T00:08:54.866Z,998.87
2022-07-25T00:10:10.284Z,998.84
2022-07-25T00:10:55.818Z,998.81
2022-07-25T00:11:54.809Z,998.83
2022-07-25T00:12:55.834Z,998.84
2022-07-25T00:13:54.803Z,998.82
2022-07-25T00:14:57.808Z,998.83
2022-07-25T00:16:19.146Z,998.82
2022-07-25T00:16:54.748Z,998.76
2022-07-25T00:17:55.765Z,998.78
2022-07-25T00:18:54.764Z,998.79
2022-07-25T00:19:55.961Z,998.79
2022-07-25T00:20:55.945Z,998.75
2022-07-25T00:21:55.954Z,998.73
2022-07-25T00:22:55.952Z,998.78
2022-07-25T00:23:54.938Z,998.73
2022-07-25T00:24:54.922Z,998.71
2022-07-25T00:25:54.658Z,998.71
2022-07-25T00:26:55.887Z,998.71
2022-07-25T00:28:01.891Z,998.70
2022-07-25T00:28:54.635Z,998.69
2022-07-25T00:29:54.843Z,998.70
2022-07-25T00:30:54.913Z,998.65
2022-07-25T00:31:54.590Z,998.66
2022-07-25T00:32:55.610Z,998.64
2022-07-25T00:33:57.590Z,998.64
2022-07-25T00:34:55.828Z,998.63
2022-07-25T00:35:55.596Z,998.64
2022-07-25T00:36:54.776Z,998.67
2022-07-25T00:37:54.769Z,998.61
2022-07-25T00:39:09.821Z,998.67
2022-07-25T00:39:54.513Z,998.65
2022-07-25T00:40:55.620Z,998.62
2022-07-25T00:41:54.506Z,998.62
2022-07-25T00:42:54.733Z,998.62
2022-07-25T00:43:54.464Z,998.56
2022-07-25T00:44:55.490Z,998.54
2022-07-25T00:45:54.463Z,998.59
2022-07-25T00:46:54.763Z,998.55
2022-07-25T00:47:54.666Z,998.53
2022-07-25T00:48:54.450Z,998.52
2022-07-25T00:49:55.417Z,998.54
2022-07-25T00:50:55.661Z,998.53
2022-07-25T00:51:54.636Z,998.53
2022-07-25T00:52:54.375Z,998.56
2022-07-25T00:53:57.410Z,998.55
2022-07-25T00:54:54.586Z,998.54
2022-07-25T00:55:54.349Z,998.54
2022-07-25T00:56:54.367Z,998.55
2022-07-25T00:57:54.555Z,998.51
2022-07-25T00:58:55.546Z,998.50
2022-07-25T00:59:54.547Z,998.48
2022-07-25T01:00:54.293Z,998.49
2022-07-25T01:01:54.334Z,998.51
2022-07-25T01:02:54.358Z,998.49
2022-07-25T01:03:54.269Z,998.49
2022-07-25T01:04:57.546Z,998.46
2022-07-25T01:05:54.240Z,998.47
2022-07-25T01:06:54.230Z,998.50
2022-07-25T01:07:57.259Z,998.44
2022-07-25T01:08:54.228Z,998.37
2022-07-25T01:09:55.219Z,998.41
2022-07-25T01:10:55.439Z,998.41
2022-07-25T01:11:55.175Z,998.42
2022-07-25T01:12:57.201Z,998.41
2022-07-25T01:13:54.178Z,998.39
2022-07-25T01:14:57.194Z,998.38
2022-07-25T01:15:54.209Z,998.39
2022-07-25T01:16:55.157Z,998.37
2022-07-25T01:17:54.157Z,998.36
2022-07-25T01:18:55.119Z,998.35
2022-07-25T01:20:01.490Z,998.36
2022-07-25T01:20:57.115Z,998.33
2022-07-25T01:21:55.109Z,998.40
2022-07-25T01:22:55.295Z,998.37
2022-07-25T01:23:54.324Z,998.40
2022-07-25T01:24:54.058Z,998.33
2022-07-25T01:25:54.038Z,998.35
2022-07-25T01:26:54.021Z,998.35
2022-07-25T01:27:55.885Z,998.33
2022-07-25T01:28:54.028Z,998.30
2022-07-25T01:29:54.013Z,998.34
2022-07-25T01:30:54.211Z,998.31
2022-07-25T01:32:01.363Z,998.30
2022-07-25T01:32:54.185Z,998.29
2022-07-25T01:33:53.974Z,998.29
2022-07-25T01:34:54.943Z,998.24
2022-07-25T01:35:53.919Z,998.22
2022-07-25T01:36:53.933Z,998.23
2022-07-25T01:38:01.296Z,998.23
2022-07-25T01:38:54.947Z,998.16
2022-07-25T01:39:54.159Z,998.18
2022-07-25T01:40:53.866Z,998.16
2022-07-25T01:42:00.936Z,998.12
2022-07-25T01:42:53.875Z,998.15
2022-07-25T01:43:54.852Z,998.11
2022-07-25T01:44:54.083Z,998.12
2022-07-25T01:45:54.901Z,998.14
2022-07-25T01:46:54.043Z,998.09
2022-07-25T01:47:53.806Z,998.11
2022-07-25T01:48:54.893Z,998.13
2022-07-25T01:49:54.010Z,998.07
2022-07-25T01:50:53.791Z,998.10
2022-07-25T01:51:53.768Z,998.06
2022-07-25T01:52:53.782Z,998.01
2022-07-25T01:53:53.979Z,998.02
2022-07-25T01:54:54.206Z,998.01
2022-07-25T01:55:54.492Z,998.00
2022-07-25T01:56:53.934Z,997.96
2022-07-25T01:58:09.154Z,997.97
2022-07-25T01:58:53.699Z,997.96
2022-07-25T01:59:53.691Z,997.91
2022-07-25T02:00:54.928Z,997.92
2022-07-25T02:01:53.947Z,997.85
2022-07-25T02:02:53.651Z,997.85
2022-07-25T02:03:53.643Z,997.87
2022-07-25T02:04:53.738Z,997.84
2022-07-25T02:05:54.840Z,997.85
2022-07-25T02:06:56.626Z,997.82
2022-07-25T02:07:53.861Z,997.82
2022-07-25T02:08:54.579Z,997.82
2022-07-25T02:10:14.568Z,997.81
2022-07-25T02:10:53.798Z,997.79
2022-07-25T02:11:53.784Z,997.79
2022-07-25T02:12:53.556Z,997.80
2022-07-25T02:13:53.573Z,997.77
2022-07-25T02:14:54.545Z,997.80
2022-07-25T02:15:53.756Z,997.75
2022-07-25T02:16:54.773Z,997.74
2022-07-25T02:17:53.484Z,997.78
2022-07-25T02:18:53.730Z,997.74
2022-07-25T02:19:56.752Z,997.76
2022-07-25T02:20:54.467Z,997.75
2022-07-25T02:21:53.677Z,997.73
2022-07-25T02:22:53.662Z,997.73
2022-07-25T02:23:53.451Z,997.71
2022-07-25T02:24:56.442Z,997.70
2022-07-25T02:25:53.637Z,997.71
2022-07-25T02:26:54.417Z,997.72
2022-07-25T02:27:56.426Z,997.71
2022-07-25T02:28:53.397Z,997.70
2022-07-25T02:29:54.603Z,997.68
2022-07-25T02:31:00.611Z,997.64
2022-07-25T02:32:00.485Z,997.67
2022-07-25T02:32:54.573Z,997.66
2022-07-25T02:33:53.580Z,997.63
2022-07-25T02:34:53.316Z,997.56
2022-07-25T02:35:56.330Z,997.62
2022-07-25T02:36:53.287Z,997.60
2022-07-25T02:37:56.337Z,997.59
2022-07-25T02:38:53.282Z,997.57
2022-07-25T02:39:53.264Z,997.56
2022-07-25T02:40:53.245Z,997.56
2022-07-25T02:41:53.229Z,997.55
2022-07-25T02:42:53.226Z,997.52
2022-07-25T02:43:53.236Z,997.55
2022-07-25T02:44:53.225Z,997.54
2022-07-25T02:45:54.273Z,997.49
2022-07-25T02:46:53.173Z,997.44
2022-07-25T02:47:53.181Z,997.42
2022-07-25T02:48:53.487Z,997.41
2022-07-25T02:49:54.166Z,997.40
2022-07-25T02:50:53.394Z,997.39
2022-07-25T02:52:00.578Z,997.41
2022-07-25T02:52:53.132Z,997.39
2022-07-25T02:53:58.206Z,997.35
2022-07-25T02:54:54.336Z,997.36
2022-07-25T02:55:53.317Z,997.39
2022-07-25T02:56:53.099Z,997.38
2022-07-25T02:57:53.079Z,997.36
2022-07-25T02:58:53.292Z,997.37
2022-07-25T02:59:54.303Z,997.32
2022-07-25T03:00:53.067Z,997.30
2022-07-25T03:01:53.299Z,997.31
2022-07-25T03:02:53.036Z,997.34
2022-07-25T03:03:53.059Z,997.30
2022-07-25T03:04:53.024Z,997.27
2022-07-25T03:05:52.987Z,997.25
2022-07-25T03:06:52.972Z,997.25
2022-07-25T03:07:52.981Z,997.22
2022-07-25T03:08:52.946Z,997.22
2022-07-25T03:09:53.218Z,997.22
2022-07-25T03:11:00.035Z,997.21
2022-07-25T03:11:53.157Z,997.25
2022-07-25T03:12:52.909Z,997.23
2022-07-25T03:13:53.125Z,997.24
2022-07-25T03:14:53.140Z,997.26
2022-07-25T03:15:54.133Z,997.22
2022-07-25T03:16:53.122Z,997.22
2022-07-25T03:17:53.099Z,997.23
2022-07-25T03:18:56.089Z,997.26
2022-07-25T03:19:52.841Z,997.27
2022-07-25T03:20:52.840Z,997.25
2022-07-25T03:21:52.811Z,997.28
2022-07-25T03:22:59.890Z,997.24
2022-07-25T03:23:53.059Z,997.27
2022-07-25T03:24:53.818Z,997.23
2022-07-25T03:25:52.812Z,997.21
2022-07-25T03:27:08.443Z,997.16
2022-07-25T03:27:53.019Z,997.16
2022-07-25T03:28:52.718Z,997.17
2022-07-25T03:29:52.965Z,997.17
2022-07-25T03:30:52.961Z,997.18
2022-07-25T03:31:52.734Z,997.16
2022-07-25T03:32:52.715Z,997.21
2022-07-25T03:33:52.933Z,997.23
2022-07-25T03:34:53.685Z,997.22
2022-07-25T03:35:52.907Z,997.21
2022-07-25T03:36:52.674Z,997.23
2022-07-25T03:37:52.894Z,997.23
2022-07-25T03:38:52.636Z,997.19
2022-07-25T03:39:53.644Z,997.23
2022-07-25T03:40:53.615Z,997.21
2022-07-25T03:41:52.829Z,997.22
2022-07-25T03:42:52.620Z,997.16
2022-07-25T03:43:52.599Z,997.15
2022-07-25T03:44:55.593Z,997.09
2022-07-25T03:45:52.570Z,997.06
2022-07-25T03:46:52.793Z,997.04
2022-07-25T03:47:52.565Z,997.02
2022-07-25T03:48:52.579Z,996.99
2022-07-25T03:49:52.753Z,996.99
2022-07-25T03:50:52.527Z,997.05
2022-07-25T03:51:55.533Z,997.03
2022-07-25T03:52:52.544Z,997.02
2022-07-25T03:53:52.484Z,997.01
2022-07-25T03:54:52.698Z,997.02
2022-07-25T03:55:52.475Z,997.03
2022-07-25T03:56:55.729Z,997.01
2022-07-25T03:57:52.438Z,997.03
2022-07-25T03:58:52.448Z,997.02
2022-07-25T03:59:52.415Z,997.03
2022-07-25T04:00:59.602Z,997.04
2022-07-25T04:01:53.669Z,997.02
2022-07-25T04:02:53.629Z,997.00
2022-07-25T04:03:52.367Z,997.01
2022-07-25T04:04:52.377Z,997.05
2022-07-25T04:05:52.580Z,997.01
2022-07-25T04:06:55.401Z,996.97
2022-07-25T04:07:52.362Z,997.02
2022-07-25T04:08:53.325Z,996.99
2022-07-25T04:09:52.360Z,997.04
2022-07-25T04:10:52.307Z,997.02
2022-07-25T04:11:53.543Z,997.04
2022-07-25T04:12:52.519Z,997.02
2022-07-25T04:13:52.327Z,997.05
2022-07-25T04:15:07.898Z,997.04
2022-07-25T04:15:52.501Z,997.06
2022-07-25T04:16:52.260Z,997.04
2022-07-25T04:17:52.250Z,997.01
2022-07-25T04:18:53.235Z,996.97
2022-07-25T04:19:52.233Z,996.94
2022-07-25T04:21:07.839Z,996.92
2022-07-25T04:21:52.191Z,996.96
2022-07-25T04:22:53.212Z,996.91
2022-07-25T04:23:52.404Z,996.89
2022-07-25T04:24:52.172Z,996.88
2022-07-25T04:26:07.622Z,996.90
2022-07-25T04:26:52.148Z,996.88
2022-07-25T04:27:52.117Z,996.89
2022-07-25T04:28:52.343Z,996.97
2022-07-25T04:29:52.121Z,996.95
2022-07-25T04:30:52.115Z,996.95
2022-07-25T04:31:52.175Z,996.94
2022-07-25T04:32:53.086Z,996.98
2022-07-25T04:33:53.314Z,996.97
2022-07-25T04:34:52.342Z,996.94
2022-07-25T04:35:53.091Z,996.95
2022-07-25T04:36:52.040Z,996.96
2022-07-25T04:37:52.046Z,996.92
2022-07-25T04:38:59.391Z,996.95
2022-07-25T04:39:52.003Z,996.93
2022-07-25T04:40:55.005Z,996.91
2022-07-25T04:41:52.203Z,996.89
2022-07-25T04:42:51.988Z,996.90
2022-07-25T04:43:52.952Z,996.93
2022-07-25T04:44:51.962Z,996.90
2022-07-25T04:45:52.213Z,996.84
2022-07-25T04:46:54.921Z,996.86
2022-07-25T04:47:52.147Z,996.85
2022-07-25T04:48:53.257Z,996.85
2022-07-25T04:49:51.914Z,996.80
2022-07-25T04:50:51.875Z,996.83
2022-07-25T04:51:51.874Z,996.81
2022-07-25T04:52:53.149Z,996.80
2022-07-25T04:53:51.819Z,996.79
2022-07-25T04:54:51.874Z,996.73
2022-07-25T04:55:51.818Z,996.70
2022-07-25T04:56:51.823Z,996.68
2022-07-25T04:57:51.819Z,996.66
2022-07-25T04:58:51.796Z,996.67
2022-07-25T04:59:51.791Z,996.71
2022-07-25T05:00:51.847Z,996.67
2022-07-25T05:01:51.842Z,996.67
2022-07-25T05:02:51.761Z,996.69
2022-07-25T05:03:51.736Z,996.69
2022-07-25T05:04:52.064Z,996.66
2022-07-25T05:05:51.738Z,996.61
2022-07-25T05:06:51.720Z,996.65
2022-07-25T05:07:51.748Z,996.65
2022-07-25T05:08:51.695Z,996.69
2022-07-25T05:09:51.721Z,996.67
2022-07-25T05:10:51.675Z,996.65
2022-07-25T05:11:55.883Z,996.67
2022-07-25T05:12:51.656Z,996.67
2022-07-25T05:13:51.642Z,996.67
2022-07-25T05:14:51.658Z,996.67
2022-07-25T05:15:51.632Z,996.64
2022-07-25T05:16:51.649Z,996.63
2022-07-25T05:17:51.617Z,996.62
2022-07-25T05:18:51.578Z,996.61
2022-07-25T05:19:51.623Z,996.56
2022-07-25T05:20:51.571Z,996.56
2022-07-25T05:21:51.579Z,996.63
2022-07-25T05:22:51.575Z,996.59
2022-07-25T05:23:51.552Z,996.56
2022-07-25T05:24:51.548Z,996.63
2022-07-25T05:25:51.513Z,996.58
2022-07-25T05:26:51.519Z,996.59
2022-07-25T05:27:51.535Z,996.63
2022-07-25T05:28:51.490Z,996.60
2022-07-25T05:29:51.483Z,996.58
2022-07-25T05:30:51.451Z,996.57
2022-07-25T05:31:51.531Z,996.57
2022-07-25T05:32:51.482Z,996.61
2022-07-25T05:33:51.424Z,996.60
2022-07-25T05:34:51.436Z,996.56
2022-07-25T05:35:51.404Z,996.55
2022-07-25T05:36:51.393Z,996.61
2022-07-25T05:37:51.397Z,996.57
2022-07-25T05:38:51.393Z,996.56
2022-07-25T05:39:51.378Z,996.55
2022-07-25T05:40:51.363Z,996.55
2022-07-25T05:41:51.334Z,996.58
2022-07-25T05:42:51.345Z,996.55
2022-07-25T05:43:51.335Z,996.58
2022-07-25T05:44:51.393Z,996.56
2022-07-25T05:45:51.305Z,996.54
2022-07-25T05:46:51.376Z,996.54
2022-07-25T05:47:52.319Z,996.53
2022-07-25T05:48:51.312Z,996.56
2022-07-25T05:49:51.287Z,996.58
2022-07-25T05:50:52.294Z,996.55
2022-07-25T05:51:51.261Z,996.59
2022-07-25T05:52:51.238Z,996.58
2022-07-25T05:53:51.215Z,996.58
2022-07-25T05:54:51.219Z,996.63
2022-07-25T05:55:51.215Z,996.61
2022-07-25T05:56:51.201Z,996.63
2022-07-25T05:57:51.192Z,996.61
2022-07-25T05:58:51.211Z,996.59
2022-07-25T05:59:51.157Z,996.59
2022-07-25T06:00:51.169Z,996.57
2022-07-25T06:01:51.251Z,996.56
2022-07-25T06:02:51.301Z,996.60
2022-07-25T06:03:51.119Z,996.53
2022-07-25T06:04:51.110Z,996.53
2022-07-25T06:05:51.100Z,996.49
2022-07-25T06:06:51.086Z,996.53
2022-07-25T06:07:51.109Z,996.49
2022-07-25T06:08:51.069Z,996.49
2022-07-25T06:09:51.055Z,996.48
2022-07-25T06:10:51.069Z,996.47
2022-07-25T06:11:58.166Z,996.47
2022-07-25T06:12:52.066Z,996.47
2022-07-25T06:13:51.009Z,996.46
2022-07-25T06:14:51.013Z,996.45
2022-07-25T06:15:51.000Z,996.42
2022-07-25T06:16:51.040Z,996.40
2022-07-25T06:17:50.982Z,996.39
2022-07-25T06:18:51.002Z,996.42
2022-07-25T06:19:50.940Z,996.42
2022-07-25T06:20:50.932Z,996.46
2022-07-25T06:21:50.943Z,996.45
2022-07-25T06:22:50.916Z,996.43
2022-07-25T06:23:50.913Z,996.37
2022-07-25T06:24:50.906Z,996.40
2022-07-25T06:25:50.932Z,996.39
2022-07-25T06:26:50.875Z,996.37
2022-07-25T06:27:50.882Z,996.36
2022-07-25T06:28:50.882Z,996.34
2022-07-25T06:29:50.848Z,996.33
2022-07-25T06:30:50.831Z,996.38
2022-07-25T06:31:50.882Z,996.33
2022-07-25T06:32:50.830Z,996.38
2022-07-25T06:33:50.838Z,996.36
2022-07-25T06:34:50.867Z,996.37
2022-07-25T06:35:50.766Z,996.33
2022-07-25T06:36:50.799Z,996.30
2022-07-25T06:37:50.784Z,996.32
2022-07-25T06:38:50.758Z,996.35
2022-07-25T06:39:50.752Z,996.35
2022-07-25T06:40:50.727Z,996.29
2022-07-25T06:41:50.722Z,996.32
2022-07-25T06:42:50.736Z,996.25
2022-07-25T06:43:50.689Z,996.24
2022-07-25T06:44:50.700Z,996.23
2022-07-25T06:45:50.714Z,996.24
2022-07-25T06:46:50.713Z,996.21
2022-07-25T06:47:50.660Z,996.19
2022-07-25T06:48:50.717Z,996.15
2022-07-25T06:49:50.657Z,996.18
2022-07-25T06:50:50.629Z,996.18
2022-07-25T06:51:50.616Z,996.17
2022-07-25T06:52:51.729Z,996.20
2022-07-25T06:53:50.604Z,996.18
2022-07-25T06:54:50.618Z,996.18
2022-07-25T06:55:50.597Z,996.15
2022-07-25T06:56:50.591Z,996.13
2022-07-25T06:57:50.558Z,996.16
2022-07-25T06:58:50.542Z,996.18
2022-07-25T06:59:50.582Z,996.17
2022-07-25T07:00:50.688Z,996.16
2022-07-25T07:01:51.817Z,996.15
2022-07-25T07:02:50.569Z,996.17
2022-07-25T07:03:50.636Z,996.15
2022-07-25T07:04:50.475Z,996.18
2022-07-25T07:05:50.469Z,996.15
2022-07-25T07:06:50.478Z,996.13
2022-07-25T07:07:50.433Z,996.11
2022-07-25T07:08:50.449Z,996.16
2022-07-25T07:09:50.629Z,996.15
2022-07-25T07:10:50.449Z,996.13
2022-07-25T07:11:50.416Z,996.15
2022-07-25T07:12:50.397Z,996.15
2022-07-25T07:13:50.381Z,996.11
2022-07-25T07:14:50.366Z,996.13
2022-07-25T07:15:50.598Z,996.09
2022-07-25T07:16:50.355Z,996.10
2022-07-25T07:17:50.342Z,996.11
2022-07-25T07:18:50.338Z,996.11
2022-07-25T07:19:50.325Z,996.09
2022-07-25T07:20:50.321Z,996.08
2022-07-25T07:21:50.322Z,996.06
2022-07-25T07:22:50.297Z,996.05
2022-07-25T07:23:53.408Z,996.04
2022-07-25T07:24:50.493Z,996.05
2022-07-25T07:25:50.281Z,996.01
2022-07-25T07:26:50.246Z,996.01
2022-07-25T07:27:50.242Z,996.03
2022-07-25T07:28:50.251Z,996.08
2022-07-25T07:29:50.284Z,996.08
2022-07-25T07:31:51.276Z,996.06
2022-07-25T07:32:50.201Z,996.09
2022-07-25T07:33:53.592Z,996.10
2022-07-25T07:34:50.195Z,996.05
2022-07-25T07:35:50.223Z,996.07
2022-07-25T07:36:50.220Z,996.06
2022-07-25T07:37:50.239Z,996.02
2022-07-25T07:38:50.150Z,995.97
2022-07-25T07:39:50.101Z,995.92
2022-07-25T07:40:50.162Z,995.91
2022-07-25T07:41:50.119Z,995.94
2022-07-25T07:42:50.074Z,995.94
2022-07-25T07:43:50.077Z,995.92
2022-07-25T07:45:12.600Z,995.94
2022-07-25T07:45:50.045Z,995.91
2022-07-25T07:46:50.138Z,995.90
2022-07-25T07:47:50.024Z,995.88
2022-07-25T07:48:50.061Z,995.84
2022-07-25T07:49:50.524Z,995.86
2022-07-25T07:50:50.016Z,995.85
2022-07-25T07:51:50.253Z,995.87
2022-07-25T07:52:49.999Z,995.86
2022-07-25T07:53:50.775Z,995.80
2022-07-25T07:54:49.962Z,995.78
2022-07-25T07:55:50.233Z,995.74
2022-07-25T07:56:49.949Z,995.79
2022-07-25T07:57:50.729Z,995.75
2022-07-25T07:59:00.659Z,995.70
2022-07-25T07:59:51.419Z,995.73
2022-07-25T08:00:51.405Z,995.77
2022-07-25T08:01:49.972Z,995.77
2022-07-25T08:02:49.981Z,995.77
2022-07-25T08:03:49.885Z,995.74
2022-07-25T08:04:49.906Z,995.75
2022-07-25T08:05:49.868Z,995.76
2022-07-25T08:06:49.912Z,995.76
2022-07-25T08:07:49.803Z,995.77
2022-07-25T08:08:50.057Z,995.82
2022-07-25T08:09:49.929Z,995.78
2022-07-25T08:10:49.820Z,995.82
2022-07-25T08:11:49.856Z,995.78
2022-07-25T08:12:49.940Z,995.76
2022-07-25T08:13:50.064Z,995.78
2022-07-25T08:14:49.838Z,995.77
2022-07-25T08:15:50.070Z,995.75
2022-07-25T08:16:49.900Z,995.78
2022-07-25T08:17:49.822Z,995.79
2022-07-25T08:18:49.865Z,995.74
2022-07-25T08:19:49.739Z,995.82
2022-07-25T08:20:49.720Z,995.82
2022-07-25T08:21:49.671Z,995.83
2022-07-25T08:22:54.449Z,995.81
2022-07-25T08:23:50.687Z,995.81
2022-07-25T08:24:49.640Z,995.78
2022-07-25T08:25:49.630Z,995.76
2022-07-25T08:26:49.613Z,995.82
2022-07-25T08:27:49.620Z,995.87
2022-07-25T08:28:59.910Z,995.87
2022-07-25T08:29:50.610Z,995.97
2022-07-25T08:30:49.634Z,995.96
2022-07-25T08:31:49.623Z,996.05
2022-07-25T08:32:49.574Z,996.01
2022-07-25T08:33:49.567Z,995.98
2022-07-25T08:34:49.538Z,996.01
2022-07-25T08:35:49.556Z,995.98
2022-07-25T08:36:49.512Z,996.06
2022-07-25T08:37:49.504Z,995.97
2022-07-25T08:38:49.509Z,995.97
2022-07-25T08:39:49.505Z,996.03
2022-07-25T08:40:49.532Z,995.90
2022-07-25T08:41:49.487Z,995.88
2022-07-25T08:42:49.464Z,995.84
2022-07-25T08:43:49.465Z,995.82
2022-07-25T08:44:49.449Z,995.79
2022-07-25T08:45:49.457Z,995.76
2022-07-25T08:46:49.520Z,995.68
2022-07-25T08:47:49.423Z,995.62
2022-07-25T08:48:49.650Z,995.63
2022-07-25T08:49:49.456Z,995.57
2022-07-25T08:50:49.695Z,995.55
2022-07-25T08:51:51.729Z,995.51
2022-07-25T08:52:49.351Z,995.47
2022-07-25T08:53:49.399Z,995.39
2022-07-25T08:54:49.332Z,995.38
2022-07-25T08:55:49.333Z,995.32
2022-07-25T08:56:49.411Z,995.26
2022-07-25T08:57:50.094Z,995.25
2022-07-25T08:58:49.412Z,995.20
2022-07-25T08:59:49.448Z,995.20
2022-07-25T09:00:49.413Z,995.17
2022-07-25T09:01:49.335Z,995.15
2022-07-25T09:02:49.315Z,995.18
2022-07-25T09:03:49.272Z,995.08
2022-07-25T09:04:49.254Z,995.07
2022-07-25T09:05:49.249Z,995.01
2022-07-25T09:06:49.254Z,995.01
2022-07-25T09:07:49.246Z,994.97
2022-07-25T09:08:49.217Z,994.95
2022-07-25T09:09:49.206Z,994.92
2022-07-25T09:10:49.215Z,994.93
2022-07-25T09:11:49.215Z,994.92
2022-07-25T09:12:49.182Z,994.87
2022-07-25T09:13:49.206Z,994.87
2022-07-25T09:14:49.190Z,994.83
2022-07-25T09:15:49.491Z,994.83
2022-07-25T09:16:49.184Z,994.80
2022-07-25T09:17:49.169Z,994.80
2022-07-25T09:18:49.145Z,994.79
2022-07-25T09:19:49.122Z,994.72
2022-07-25T09:20:49.136Z,994.74
2022-07-25T09:21:50.141Z,994.73
2022-07-25T09:22:49.104Z,994.67
2022-07-25T09:23:49.107Z,994.65
2022-07-25T09:24:49.100Z,994.63
2022-07-25T09:25:49.133Z,994.57
2022-07-25T09:26:49.113Z,994.54
2022-07-25T09:27:49.082Z,994.54
2022-07-25T09:28:49.051Z,994.49
2022-07-25T09:29:49.075Z,994.49
2022-07-25T09:30:49.076Z,994.44
2022-07-25T09:31:49.068Z,994.45
2022-07-25T09:32:49.032Z,994.44
2022-07-25T09:33:49.080Z,994.37
2022-07-25T09:34:49.010Z,994.44
2022-07-25T09:35:49.108Z,994.45
2022-07-25T09:36:49.014Z,994.49
2022-07-25T09:37:48.990Z,994.44
2022-07-25T09:38:49.775Z,994.44
2022-07-25T09:39:48.997Z,994.39
2022-07-25T09:40:48.986Z,994.43
2022-07-25T09:41:48.985Z,994.40
2022-07-25T09:42:48.949Z,994.43
2022-07-25T09:43:48.949Z,994.43
2022-07-25T09:44:48.928Z,994.37
2022-07-25T09:45:48.957Z,994.37
2022-07-25T09:46:48.972Z,994.32
2022-07-25T09:47:48.947Z,994.38
2022-07-25T09:48:48.967Z,994.34
2022-07-25T09:49:49.001Z,994.34
2022-07-25T09:50:48.877Z,994.37
2022-07-25T09:51:48.925Z,994.40
2022-07-25T09:52:49.105Z,994.37
2022-07-25T09:53:48.879Z,994.34
2022-07-25T09:54:48.855Z,994.41
2022-07-25T09:55:48.860Z,994.39
2022-07-25T09:56:48.865Z,994.58
2022-07-25T09:57:48.861Z,994.79
2022-07-25T09:58:48.840Z,994.89
2022-07-25T09:59:49.054Z,994.82
2022-07-25T10:00:48.864Z,994.80
2022-07-25T10:01:48.877Z,994.81
2022-07-25T10:02:48.918Z,994.85
2022-07-25T10:03:48.813Z,994.90
2022-07-25T10:04:48.796Z,994.83
2022-07-25T10:05:48.772Z,994.85
2022-07-25T10:06:48.801Z,994.82
2022-07-25T10:07:48.770Z,994.78
2022-07-25T10:08:48.776Z,994.74
2022-07-25T10:09:48.765Z,994.71
2022-07-25T10:10:48.764Z,994.67
2022-07-25T10:11:48.760Z,994.68
2022-07-25T10:12:48.734Z,994.69
2022-07-25T10:13:48.700Z,994.64
2022-07-25T10:14:48.707Z,994.65
2022-07-25T10:15:48.709Z,994.68
2022-07-25T10:16:48.821Z,994.61
2022-07-25T10:17:48.665Z,994.65
2022-07-25T10:18:48.713Z,994.66
2022-07-25T10:19:52.926Z,994.71
2022-07-25T10:20:49.644Z,994.65
2022-07-25T10:21:48.662Z,994.61
2022-07-25T10:22:57.276Z,994.56
2022-07-25T10:23:49.646Z,994.54
2022-07-25T10:24:48.629Z,994.52
2022-07-25T10:25:49.248Z,994.48
2022-07-25T10:26:48.626Z,994.49
2022-07-25T10:27:48.642Z,994.47
2022-07-25T10:28:48.568Z,994.45
2022-07-25T10:29:48.555Z,994.44
2022-07-25T10:30:48.585Z,994.44
2022-07-25T10:31:51.487Z,994.44
2022-07-25T10:32:48.555Z,994.51
2022-07-25T10:33:48.566Z,994.48
2022-07-25T10:34:48.563Z,994.45
2022-07-25T10:35:48.501Z,994.40
2022-07-25T10:36:48.503Z,994.46
2022-07-25T10:37:49.251Z,994.42
2022-07-25T10:38:48.497Z,994.43
2022-07-25T10:39:48.463Z,994.41
2022-07-25T10:40:48.453Z,994.44
2022-07-25T10:41:48.446Z,994.47
2022-07-25T10:42:48.443Z,994.49
2022-07-25T10:43:48.960Z,994.50
2022-07-25T10:44:48.448Z,994.47
2022-07-25T10:45:48.421Z,994.50
2022-07-25T10:46:48.446Z,994.41
2022-07-25T10:47:48.376Z,994.36
2022-07-25T10:48:48.415Z,994.41
2022-07-25T10:50:16.449Z,994.43
2022-07-25T10:50:57.008Z,994.43
2022-07-25T10:51:49.361Z,994.45
2022-07-25T10:52:48.369Z,994.45
2022-07-25T10:53:48.390Z,994.41
2022-07-25T10:54:48.374Z,994.38
2022-07-25T10:56:04.881Z,994.43
2022-07-25T10:56:49.324Z,994.43
2022-07-25T10:58:08.086Z,994.40
2022-07-25T10:58:49.293Z,994.39
2022-07-25T10:59:48.322Z,994.45
2022-07-25T11:00:48.300Z,994.48
2022-07-25T11:01:48.373Z,994.52
2022-07-25T11:02:48.346Z,994.49
2022-07-25T11:03:48.231Z,994.53
2022-07-25T11:04:48.244Z,994.46
2022-07-25T11:05:48.362Z,994.38
2022-07-25T11:06:48.208Z,994.40
2022-07-25T11:08:11.125Z,994.41
2022-07-25T11:08:49.194Z,994.38
2022-07-25T11:09:48.192Z,994.34
2022-07-25T11:10:48.175Z,994.30
2022-07-25T11:11:48.156Z,994.32
2022-07-25T11:12:48.184Z,994.32
2022-07-25T11:13:48.214Z,994.30
2022-07-25T11:14:48.124Z,994.30
2022-07-25T11:15:48.128Z,994.23
2022-07-25T11:16:48.220Z,994.21
2022-07-25T11:17:48.116Z,994.15
2022-07-25T11:18:48.128Z,994.15
2022-07-25T11:19:48.077Z,994.08
2022-07-25T11:20:48.071Z,994.10
2022-07-25T11:21:48.062Z,994.12
2022-07-25T11:22:48.069Z,994.15
2022-07-25T11:23:48.050Z,994.13
2022-07-25T11:24:48.038Z,994.10
2022-07-25T11:25:48.010Z,994.03
2022-07-25T11:26:48.031Z,994.07
2022-07-25T11:27:48.005Z,994.03
2022-07-25T11:28:48.011Z,994.09
2022-07-25T11:29:47.973Z,994.11
2022-07-25T11:30:47.970Z,994.06
2022-07-25T11:31:48.096Z,994.06
2022-07-25T11:32:47.946Z,994.04
2022-07-25T11:33:47.945Z,994.01
2022-07-25T11:34:47.950Z,994.04
2022-07-25T11:35:47.942Z,994.07
2022-07-25T11:36:47.959Z,994.11
2022-07-25T11:37:47.874Z,994.15
2022-07-25T11:38:48.056Z,994.11
2022-07-25T11:39:47.879Z,994.09
2022-07-25T11:40:47.870Z,994.05
2022-07-25T11:41:55.251Z,994.00
2022-07-25T11:42:47.860Z,994.03
2022-07-25T11:43:47.851Z,993.99
2022-07-25T11:44:48.324Z,994.00
2022-07-25T11:45:47.852Z,993.95
2022-07-25T11:46:47.851Z,993.91
2022-07-25T11:47:47.815Z,993.95
2022-07-25T11:48:47.967Z,993.92
2022-07-25T11:49:47.779Z,993.92
2022-07-25T11:50:47.813Z,993.86
2022-07-25T11:51:47.765Z,993.93
2022-07-25T11:52:47.830Z,993.94
2022-07-25T11:53:47.760Z,993.86
2022-07-25T11:54:47.732Z,993.96
2022-07-25T11:55:47.745Z,993.95
2022-07-25T11:56:47.810Z,993.96
2022-07-25T11:57:47.727Z,993.93
2022-07-25T11:58:47.687Z,994.00
2022-07-25T11:59:47.672Z,993.96
2022-07-25T12:00:47.700Z,993.96
2022-07-25T12:01:47.758Z,993.95
2022-07-25T12:02:47.776Z,994.00
2022-07-25T12:03:47.702Z,993.99
2022-07-25T12:04:47.646Z,993.99
2022-07-25T12:05:47.695Z,993.97
2022-07-25T12:06:47.624Z,994.03
2022-07-25T12:07:47.850Z,994.09
2022-07-25T12:08:47.610Z,994.24
2022-07-25T12:09:47.592Z,994.16
2022-07-25T12:10:47.586Z,994.19
2022-07-25T12:11:47.563Z,994.24
2022-07-25T12:12:47.579Z,994.23
2022-07-25T12:13:47.591Z,994.21
2022-07-25T12:14:47.561Z,994.19
2022-07-25T12:15:47.525Z,994.24
2022-07-25T12:16:47.585Z,994.21
2022-07-25T12:17:47.505Z,994.17
2022-07-25T12:18:47.501Z,994.11
2022-07-25T12:19:47.490Z,994.09
2022-07-25T12:20:47.505Z,994.07
2022-07-25T12:21:47.471Z,994.08
2022-07-25T12:22:47.574Z,994.09
2022-07-25T12:23:47.442Z,994.18
2022-07-25T12:24:47.439Z,994.12
2022-07-25T12:25:47.449Z,994.12
2022-07-25T12:26:47.427Z,994.10
2022-07-25T12:27:47.408Z,994.05
2022-07-25T12:28:47.391Z,994.05
2022-07-25T12:29:47.447Z,994.06